createdAt,value
2018-11-23T00:01:24.398Z,99153.32
2018-11-23T00:03:57.393Z,99158.89
2018-11-23T00:06:34.144Z,99156.96
2018-11-23T00:09:05.772Z,99159.92
2018-11-23T00:11:37.584Z,99156.25
2018-11-23T00:14:07.767Z,99159.53
2018-11-23T00:16:38.849Z,99161.03
2018-11-23T00:19:10.554Z,99163.50
2018-11-23T00:21:41.142Z,99161.15
2018-11-23T00:24:13.554Z,99157.51
2018-11-23T00:26:46.375Z,99153.22
2018-11-23T00:29:16.430Z,99152.06
2018-11-23T00:31:50.296Z,99166.05
2018-11-23T00:34:20.762Z,99169.95
2018-11-23T00:36:51.560Z,99167.73
2018-11-23T00:39:22.494Z,99163.56
2018-11-23T00:41:55.025Z,99170.78
2018-11-23T00:44:25.532Z,99176.18
2018-11-23T00:47:04.381Z,99179.03
2018-11-23T00:49:40.353Z,99168.78
2018-11-23T00:52:10.431Z,99164.73
2018-11-23T00:54:41.387Z,99172.42
2018-11-23T00:57:12.118Z,99170.23
2018-11-23T00:59:44.681Z,99174.80
2018-11-23T01:02:15.559Z,99171.66
2018-11-23T01:04:48.522Z,99169.69
2018-11-23T01:07:21.591Z,99174.97
2018-11-23T01:09:55.134Z,99179.25
2018-11-23T01:12:28.354Z,99170.83
2018-11-23T01:14:58.659Z,99170.63
2018-11-23T01:17:28.719Z,99168.09
2018-11-23T01:19:59.631Z,99172.59
2018-11-23T01:22:29.658Z,99175.73
2018-11-23T01:25:06.975Z,99171.88
2018-11-23T01:27:40.644Z,99176.45
2018-11-23T01:30:17.974Z,99171.48
2018-11-23T01:32:49.859Z,99174.42
2018-11-23T01:35:22.690Z,99160.59
2018-11-23T01:37:55.851Z,99159.38
2018-11-23T01:40:30.342Z,99162.46
2018-11-23T01:43:02.750Z,99167.13
2018-11-23T01:45:32.774Z,99170.39
2018-11-23T01:48:05.968Z,99169.56
2018-11-23T01:50:36.664Z,99161.14
2018-11-23T01:53:06.935Z,99160.09
2018-11-23T01:55:38.470Z,99156.84
2018-11-23T01:58:10.885Z,99156.95
2018-11-23T02:00:46.993Z,99155.31
2018-11-23T02:03:17.479Z,99152.67
2018-11-23T02:05:48.482Z,99152.67
2018-11-23T02:08:19.363Z,99150.02
2018-11-23T02:10:51.877Z,99159.98
2018-11-23T02:13:25.256Z,99155.31
2018-11-23T02:15:55.935Z,99156.95
2018-11-23T02:18:26.007Z,99143.12
2018-11-23T02:20:56.012Z,99144.84
2018-11-23T02:23:26.184Z,99148.16
2018-11-23T02:25:56.970Z,99136.27
2018-11-23T02:28:30.030Z,99144.20
2018-11-23T02:31:06.383Z,99143.52
2018-11-23T02:33:38.971Z,99145.77
2018-11-23T02:36:11.520Z,99142.70
2018-11-23T02:38:43.931Z,99142.31
2018-11-23T02:41:14.310Z,99145.28
2018-11-23T02:43:45.000Z,99149.56
2018-11-23T02:46:15.076Z,99147.71
2018-11-23T02:48:46.334Z,99148.86
2018-11-23T02:51:17.034Z,99150.50
2018-11-23T02:53:47.811Z,99104.02
2018-11-23T02:56:20.119Z,99148.86
2018-11-23T02:58:53.042Z,99157.89
2018-11-23T03:01:23.122Z,99158.92
2018-11-23T03:03:55.064Z,99159.03
2018-11-23T03:06:26.936Z,99164.43
2018-11-23T03:08:58.051Z,99161.47
2018-11-23T03:11:28.071Z,99159.33
2018-11-23T03:13:58.776Z,99161.78
2018-11-23T03:16:29.074Z,99161.28
2018-11-23T03:18:59.102Z,99156.00
2018-11-23T03:21:29.835Z,99152.54
2018-11-23T03:23:59.958Z,99151.33
2018-11-23T03:26:30.144Z,99156.11
2018-11-23T03:29:00.195Z,99156.00
2018-11-23T03:31:30.955Z,99160.64
2018-11-23T03:34:01.356Z,99153.54
2018-11-23T03:36:31.647Z,99155.18
2018-11-23T03:39:02.017Z,99161.28
2018-11-23T03:41:32.204Z,99163.29
2018-11-23T03:44:02.605Z,99165.64
2018-11-23T03:46:33.355Z,99168.78
2018-11-23T03:49:03.536Z,99171.93
2018-11-23T03:51:33.552Z,99161.36
2018-11-23T03:54:03.882Z,99162.50
2018-11-23T03:56:34.413Z,99167.25
2018-11-23T03:59:04.534Z,99168.58
2018-11-23T04:01:34.834Z,99172.25
2018-11-23T04:04:05.823Z,99164.93
2018-11-23T04:06:38.433Z,99162.67
2018-11-23T04:09:09.622Z,99167.58
2018-11-23T04:11:42.367Z,99165.43
2018-11-23T04:14:14.334Z,99171.47
2018-11-23T04:16:45.270Z,99173.91
2018-11-23T04:19:17.416Z,99173.41
2018-11-23T04:21:49.376Z,99167.41
2018-11-23T04:24:20.349Z,99165.37
2018-11-23T04:26:50.343Z,99167.02
2018-11-23T04:29:23.171Z,99175.27
2018-11-23T04:31:53.615Z,99180.34
2018-11-23T04:34:24.256Z,99180.84
2018-11-23T04:36:54.520Z,99179.23
2018-11-23T04:39:24.537Z,99177.20
2018-11-23T04:41:55.373Z,99178.02
2018-11-23T04:44:25.556Z,99180.45
2018-11-23T04:46:56.097Z,99184.13
2018-11-23T04:49:26.373Z,99192.34
2018-11-23T04:51:56.855Z,99181.77
2018-11-23T04:54:27.154Z,99196.31
2018-11-23T04:57:00.531Z,99184.13
2018-11-23T04:59:30.688Z,99188.09
2018-11-23T05:02:01.629Z,99186.13
2018-11-23T05:04:34.674Z,99185.13
2018-11-23T05:07:04.724Z,99179.84
2018-11-23T05:09:35.722Z,99186.02
2018-11-23T05:12:07.733Z,99185.91
2018-11-23T05:14:38.897Z,99186.12
2018-11-23T05:17:10.828Z,99187.13
2018-11-23T05:19:42.766Z,99180.83
2018-11-23T05:22:14.773Z,99181.55
2018-11-23T05:24:52.719Z,99187.55
2018-11-23T05:27:23.780Z,99177.55
2018-11-23T05:29:53.857Z,99189.88
2018-11-23T05:32:27.754Z,99190.91
2018-11-23T05:35:00.558Z,99196.31
2018-11-23T05:37:31.978Z,99199.06
2018-11-23T05:40:02.082Z,99198.28
2018-11-23T05:42:37.913Z,99200.49
2018-11-23T05:45:12.502Z,99205.28
2018-11-23T05:47:44.901Z,99205.49
2018-11-23T05:50:18.435Z,99204.99
2018-11-23T05:52:50.919Z,99208.75
2018-11-23T05:55:21.782Z,99216.36
2018-11-23T05:57:52.555Z,99218.72
2018-11-23T06:00:28.205Z,99222.97
2018-11-23T06:02:58.890Z,99220.14
2018-11-23T06:05:29.032Z,99223.61
2018-11-23T06:08:07.719Z,99227.26
2018-11-23T06:10:41.845Z,99230.22
2018-11-23T06:13:14.930Z,99227.97
2018-11-23T06:15:48.123Z,99226.72
2018-11-23T06:18:20.987Z,99223.78
2018-11-23T06:20:52.035Z,99234.36
2018-11-23T06:23:27.886Z,99229.06
2018-11-23T06:26:07.272Z,99233.53
2018-11-23T06:28:37.973Z,99237.00
2018-11-23T06:31:08.401Z,99232.00
2018-11-23T06:33:43.734Z,99239.65
2018-11-23T06:36:19.653Z,99240.25
2018-11-23T06:38:51.117Z,99243.90
2018-11-23T06:41:27.364Z,99246.55
2018-11-23T06:43:57.923Z,99238.83
2018-11-23T06:46:28.003Z,99243.90
2018-11-23T06:48:58.573Z,99242.08
2018-11-23T06:51:28.768Z,99248.80
2018-11-23T06:53:59.098Z,99248.19
2018-11-23T06:56:29.423Z,99257.05
2018-11-23T06:58:59.888Z,99254.02
2018-11-23T07:01:30.020Z,99245.06
2018-11-23T07:04:00.143Z,99249.66
2018-11-23T07:06:30.177Z,99248.63
2018-11-23T07:09:01.111Z,99254.56
2018-11-23T07:11:34.972Z,99251.20
2018-11-23T07:14:07.129Z,99252.53
2018-11-23T07:16:38.722Z,99261.58
2018-11-23T07:19:09.203Z,99266.98
2018-11-23T07:21:46.942Z,99273.91
2018-11-23T07:24:18.217Z,99271.27
2018-11-23T07:26:48.269Z,99268.63
2018-11-23T07:29:19.191Z,99275.34
2018-11-23T07:31:49.322Z,99261.41
2018-11-23T07:34:19.833Z,99267.13
2018-11-23T07:36:50.186Z,99268.66
2018-11-23T07:39:31.373Z,99268.13
2018-11-23T07:42:16.036Z,99268.77
2018-11-23T07:44:48.405Z,99263.77
2018-11-23T07:47:20.383Z,99267.55
2018-11-23T07:49:52.047Z,99253.83
2018-11-23T07:52:22.458Z,99259.51
2018-11-23T07:54:53.400Z,99258.47
2018-11-23T07:57:23.532Z,99261.84
2018-11-23T07:59:56.356Z,99259.58
2018-11-23T08:02:27.523Z,99258.87
2018-11-23T08:05:09.111Z,99256.44
2018-11-23T08:07:39.428Z,99253.96
2018-11-23T08:10:13.292Z,99257.33
2018-11-23T08:12:46.885Z,99261.47
2018-11-23T08:15:20.876Z,99259.75
2018-11-23T08:17:53.652Z,99252.04
2018-11-23T08:20:30.378Z,99261.13
2018-11-23T08:23:00.423Z,99257.52
2018-11-23T08:25:30.586Z,99251.62
2018-11-23T08:28:01.427Z,99249.36
2018-11-23T08:30:31.534Z,99244.18
2018-11-23T08:33:05.144Z,99243.36
2018-11-23T08:35:35.633Z,99244.78
2018-11-23T08:38:05.843Z,99255.05
2018-11-23T08:40:38.542Z,99257.69
2018-11-23T08:43:09.178Z,99255.98
2018-11-23T08:45:39.570Z,99253.55
2018-11-23T08:48:11.662Z,99245.50
2018-11-23T08:50:42.475Z,99238.99
2018-11-23T08:53:14.557Z,99234.23
2018-11-23T08:55:46.705Z,99240.03
2018-11-23T08:58:17.126Z,99240.21
2018-11-23T09:00:47.590Z,99240.03
2018-11-23T09:03:17.952Z,99238.13
2018-11-23T09:05:48.364Z,99231.91
2018-11-23T09:08:18.754Z,99228.89
2018-11-23T09:10:49.132Z,99238.34
2018-11-23T09:13:19.610Z,99246.17
2018-11-23T09:15:49.603Z,99249.05
2018-11-23T09:18:19.724Z,99251.09
2018-11-23T09:20:50.399Z,99251.20
2018-11-23T09:23:20.823Z,99245.19
2018-11-23T09:25:51.091Z,99241.03
2018-11-23T09:28:21.502Z,99240.34
2018-11-23T09:30:51.682Z,99240.95
2018-11-23T09:33:22.132Z,99239.23
2018-11-23T09:35:52.513Z,99245.55
2018-11-23T09:38:22.914Z,99248.09
2018-11-23T09:40:53.928Z,99255.41
2018-11-23T09:43:23.982Z,99250.94
2018-11-23T09:45:54.044Z,99248.28
2018-11-23T09:48:24.476Z,99245.73
2018-11-23T09:50:54.885Z,99248.28
2018-11-23T09:53:25.607Z,99239.95
2018-11-23T09:55:56.345Z,99251.98
2018-11-23T09:58:28.942Z,99249.92
2018-11-23T10:01:02.002Z,99256.05
2018-11-23T10:03:34.997Z,99259.92
2018-11-23T10:06:06.008Z,99248.92
2018-11-23T10:08:39.007Z,99247.06
2018-11-23T10:11:10.191Z,99244.13
2018-11-23T10:13:40.359Z,99241.88
2018-11-23T10:16:11.950Z,99247.06
2018-11-23T10:18:42.091Z,99242.19
2018-11-23T10:21:14.601Z,99234.84
2018-11-23T10:23:45.041Z,99232.42
2018-11-23T10:26:15.154Z,99225.67
2018-11-23T10:28:45.952Z,99205.88
2018-11-23T10:31:16.344Z,99199.06
2018-11-23T10:33:46.957Z,99190.89
2018-11-23T10:36:17.366Z,99188.48
2018-11-23T10:38:47.746Z,99184.08
2018-11-23T10:41:18.104Z,99191.33
2018-11-23T10:43:48.701Z,99190.50
2018-11-23T10:46:22.549Z,99184.92
2018-11-23T10:48:55.065Z,99174.22
2018-11-23T10:51:25.139Z,99169.05
2018-11-23T10:53:59.008Z,99171.58
2018-11-23T10:56:29.155Z,99170.84
2018-11-23T10:58:59.174Z,99175.23
2018-11-23T11:01:35.570Z,99169.50
2018-11-23T11:04:12.034Z,99165.74
2018-11-23T11:06:55.440Z,99160.44
2018-11-23T11:09:28.256Z,99164.00
2018-11-23T11:11:58.448Z,99152.38
2018-11-23T11:14:28.603Z,99151.06
2018-11-23T11:16:59.479Z,99150.61
2018-11-23T11:19:29.681Z,99147.04
2018-11-23T11:22:02.344Z,99159.01
2018-11-23T11:24:33.387Z,99166.42
2018-11-23T11:27:09.419Z,99158.45
2018-11-23T11:29:39.561Z,99149.55
2018-11-23T11:32:13.262Z,99153.01
2018-11-23T11:34:43.475Z,99160.28
2018-11-23T11:37:19.422Z,99147.17
2018-11-23T11:39:54.421Z,99141.23
2018-11-23T11:42:26.317Z,99142.88
2018-11-23T11:44:56.315Z,99143.88
2018-11-23T11:47:27.131Z,99142.45
2018-11-23T11:49:59.132Z,99141.98
2018-11-23T11:52:28.099Z,99143.22
2018-11-23T11:54:58.103Z,99132.31
2018-11-23T11:57:28.345Z,99127.56
2018-11-23T11:59:58.492Z,99127.56
2018-11-23T12:02:29.111Z,99121.02
2018-11-23T12:04:59.325Z,99123.17
2018-11-23T12:07:29.663Z,99119.02
2018-11-23T12:10:00.176Z,99112.25
2018-11-23T12:12:30.629Z,99109.59
2018-11-23T12:15:03.286Z,99103.11
2018-11-23T12:17:34.429Z,99099.59
2018-11-23T12:20:06.207Z,99096.90
2018-11-23T12:22:40.546Z,99093.17
2018-11-23T12:25:11.775Z,99085.32
2018-11-23T12:27:44.533Z,99088.88
2018-11-23T12:30:16.545Z,99079.52
2018-11-23T12:32:47.884Z,99071.56
2018-11-23T12:35:19.728Z,99067.05
2018-11-23T12:37:55.468Z,99063.19
2018-11-23T12:40:26.102Z,99056.81
2018-11-23T12:42:59.289Z,99061.25
2018-11-23T12:45:29.621Z,99058.62
2018-11-23T12:47:59.619Z,99057.48
2018-11-23T12:50:30.677Z,99065.47
2018-11-23T12:53:06.421Z,99063.55
2018-11-23T12:55:33.826Z,99070.72
2018-11-23T12:58:07.647Z,99070.55
2018-11-23T13:00:37.716Z,99066.52
2018-11-23T13:03:08.731Z,99065.78
2018-11-23T13:05:38.795Z,99069.42
2018-11-23T13:08:08.847Z,99063.25
2018-11-23T13:10:45.683Z,99059.47
2018-11-23T13:13:16.744Z,99057.77
2018-11-23T13:15:46.823Z,99052.47
2018-11-23T13:18:17.085Z,99048.34
2018-11-23T13:20:47.788Z,99047.92
2018-11-23T13:23:20.743Z,99040.89
2018-11-23T13:25:53.939Z,99039.29
2018-11-23T13:28:26.856Z,99026.45
2018-11-23T13:31:03.694Z,99026.88
2018-11-23T13:33:33.716Z,99032.02
2018-11-23T13:36:03.842Z,99033.84
2018-11-23T13:38:34.901Z,99038.92
2018-11-23T13:41:08.094Z,99039.41
2018-11-23T13:43:40.781Z,99038.30
2018-11-23T13:46:11.798Z,99032.58
2018-11-23T13:48:42.450Z,99021.80
2018-11-23T13:51:14.906Z,99014.83
2018-11-23T13:53:44.932Z,99004.42
2018-11-23T13:56:15.923Z,99001.11
2018-11-23T13:58:45.942Z,99004.97
2018-11-23T14:01:16.626Z,98997.70
2018-11-23T14:03:46.940Z,98989.36
2018-11-23T14:06:17.301Z,98993.64
2018-11-23T14:08:47.721Z,98989.86
2018-11-23T14:11:17.889Z,98992.63
2018-11-23T14:13:47.950Z,98994.74
2018-11-23T14:16:18.175Z,98989.36
2018-11-23T14:18:55.522Z,98989.44
2018-11-23T14:21:30.873Z,98985.11
2018-11-23T14:24:03.157Z,98978.91
2018-11-23T14:26:34.215Z,98983.67
2018-11-23T14:29:05.598Z,98983.70
2018-11-23T14:31:35.759Z,98992.17
2018-11-23T14:34:06.173Z,98982.53
2018-11-23T14:36:36.476Z,98980.97
2018-11-23T14:39:08.923Z,98982.72
2018-11-23T14:41:40.067Z,98982.45
2018-11-23T14:44:12.238Z,98969.97
2018-11-23T14:46:47.193Z,98968.02
2018-11-23T14:49:18.257Z,98956.52
2018-11-23T14:51:53.865Z,98950.31
2018-11-23T14:54:24.175Z,98947.44
2018-11-23T14:56:54.570Z,98946.22
2018-11-23T14:59:28.020Z,98949.14
2018-11-23T15:01:58.358Z,98945.91
2018-11-23T15:04:37.156Z,98943.38
2018-11-23T15:07:08.707Z,98942.67
2018-11-23T15:09:41.013Z,98938.81
2018-11-23T15:12:11.882Z,98940.44
2018-11-23T15:14:42.251Z,98940.13
2018-11-23T15:17:13.289Z,98938.81
2018-11-23T15:19:43.296Z,98941.45
2018-11-23T15:22:13.732Z,98943.09
2018-11-23T15:24:44.106Z,98934.41
2018-11-23T15:27:14.660Z,98926.02
2018-11-23T15:29:45.012Z,98917.74
2018-11-23T15:32:15.390Z,98912.94
2018-11-23T15:34:46.043Z,98915.41
2018-11-23T15:37:16.652Z,98912.36
2018-11-23T15:39:47.250Z,98922.50
2018-11-23T15:42:17.264Z,98927.73
2018-11-23T15:44:47.534Z,98918.95
2018-11-23T15:47:18.132Z,98923.22
2018-11-23T15:49:48.783Z,98912.61
2018-11-23T15:52:19.487Z,98910.30
2018-11-23T15:54:52.488Z,98910.84
2018-11-23T15:57:22.586Z,98917.75
2018-11-23T16:00:09.380Z,98914.67
2018-11-23T16:02:40.661Z,98906.05
2018-11-23T16:05:12.939Z,98912.45
2018-11-23T16:07:51.064Z,98898.98
2018-11-23T16:10:25.375Z,98892.88
2018-11-23T16:12:58.947Z,98906.33
2018-11-23T16:15:34.719Z,98906.95
2018-11-23T16:18:06.999Z,98902.11
2018-11-23T16:20:39.678Z,98901.13
2018-11-23T16:23:26.119Z,98903.67
2018-11-23T16:25:57.354Z,98901.21
2018-11-23T16:28:29.782Z,98902.46
2018-11-23T16:30:59.845Z,98903.78
2018-11-23T16:33:33.690Z,98901.72
2018-11-23T16:36:03.771Z,98895.29
2018-11-23T16:38:34.111Z,98893.61
2018-11-23T16:41:05.406Z,98893.77
2018-11-23T16:43:37.782Z,98892.20
2018-11-23T16:46:08.877Z,98884.91
2018-11-23T16:48:48.365Z,98885.93
2018-11-23T16:51:20.913Z,98883.28
2018-11-23T16:54:01.792Z,98875.63
2018-11-23T16:56:33.863Z,98879.45
2018-11-23T16:59:04.239Z,98864.79
2018-11-23T17:01:34.986Z,98861.62
2018-11-23T17:04:06.671Z,98858.55
2018-11-23T17:06:38.879Z,98863.47
2018-11-23T17:09:09.861Z,98855.44
2018-11-23T17:11:42.001Z,98855.52
2018-11-23T17:14:17.792Z,98847.78
2018-11-23T17:16:48.984Z,98847.94
2018-11-23T17:19:22.774Z,98842.79
2018-11-23T17:21:52.931Z,98836.16
2018-11-23T17:24:33.280Z,98841.16
2018-11-23T17:27:12.190Z,98841.47
2018-11-23T17:29:47.608Z,98827.66
2018-11-23T17:32:17.998Z,98836.16
2018-11-23T17:34:48.674Z,98837.77
2018-11-23T17:37:18.903Z,98828.48
2018-11-23T17:39:52.798Z,98832.26
2018-11-23T17:42:22.911Z,98835.19
2018-11-23T17:44:55.914Z,98841.73
2018-11-23T17:47:26.915Z,98835.57
2018-11-23T17:49:57.129Z,98846.77
2018-11-23T17:52:28.734Z,98833.34
2018-11-23T17:55:01.055Z,98827.16
2018-11-23T17:57:34.064Z,98828.05
2018-11-23T18:00:10.670Z,98821.41
2018-11-23T18:02:41.285Z,98821.85
2018-11-23T18:05:13.135Z,98815.73
2018-11-23T18:07:45.240Z,98816.16
2018-11-23T18:10:19.046Z,98813.52
2018-11-23T18:12:49.430Z,98809.53
2018-11-23T18:15:29.040Z,98813.00
2018-11-23T18:18:02.273Z,98812.11
2018-11-23T18:20:35.581Z,98815.50
2018-11-23T18:23:08.362Z,98803.42
2018-11-23T18:25:41.553Z,98814.77
2018-11-23T18:28:13.755Z,98809.19
2018-11-23T18:30:45.291Z,98809.77
2018-11-23T18:33:18.511Z,98803.87
2018-11-23T18:35:49.254Z,98808.59
2018-11-23T18:38:22.283Z,98801.23
2018-11-23T18:40:55.404Z,98797.98
2018-11-23T18:43:26.303Z,98803.02
2018-11-23T18:46:02.065Z,98786.80
2018-11-23T18:48:33.284Z,98780.52
2018-11-23T18:51:03.385Z,98788.68
2018-11-23T18:53:36.236Z,98790.11
2018-11-23T18:56:06.385Z,98788.86
2018-11-23T18:58:37.336Z,98789.65
2018-11-23T19:01:08.904Z,98789.45
2018-11-23T19:03:42.505Z,98778.97
2018-11-23T19:06:12.402Z,98775.22
2018-11-23T19:08:44.492Z,98771.45
2018-11-23T19:11:15.437Z,98769.25
2018-11-23T19:13:48.372Z,98762.47
2018-11-23T19:16:19.012Z,98769.48
2018-11-23T19:18:49.273Z,98763.59
2018-11-23T19:21:20.167Z,98762.63
2018-11-23T19:23:50.289Z,98754.14
2018-11-23T19:26:20.408Z,98754.45
2018-11-23T19:28:51.362Z,98743.53
2018-11-23T19:31:21.654Z,98746.72
2018-11-23T19:33:51.781Z,98735.16
2018-11-23T19:36:22.181Z,98733.30
2018-11-23T19:38:53.296Z,98732.70
2018-11-23T19:41:25.653Z,98727.56
2018-11-23T19:43:55.687Z,98718.49
2018-11-23T19:46:26.388Z,98717.67
2018-11-23T19:48:56.537Z,98711.56
2018-11-23T19:51:29.482Z,98708.56
2018-11-23T19:54:00.447Z,98698.98
2018-11-23T19:56:30.632Z,98695.07
2018-11-23T19:59:01.649Z,98691.84
2018-11-23T20:01:31.874Z,98682.92
2018-11-23T20:04:02.589Z,98678.64
2018-11-23T20:06:32.667Z,98672.73
2018-11-23T20:09:09.535Z,98666.44
2018-11-23T20:11:39.654Z,98669.70
2018-11-23T20:14:09.694Z,98674.42
2018-11-23T20:16:43.894Z,98665.22
2018-11-23T20:19:14.263Z,98672.14
2018-11-23T20:21:44.524Z,98667.28
2018-11-23T20:24:14.608Z,98663.00
2018-11-23T20:26:44.993Z,98660.66
2018-11-23T20:29:15.283Z,98658.75
2018-11-23T20:31:46.325Z,98655.48
2018-11-23T20:34:18.643Z,98637.92
2018-11-23T20:36:49.344Z,98627.69
2018-11-23T20:39:22.785Z,98628.41
2018-11-23T20:41:52.899Z,98629.28
2018-11-23T20:44:31.559Z,98627.89
2018-11-23T20:47:02.275Z,98625.76
2018-11-23T20:49:32.679Z,98623.62
2018-11-23T20:52:02.959Z,98620.28
2018-11-23T20:54:33.626Z,98618.69
2018-11-23T20:57:03.714Z,98615.66
2018-11-23T20:59:38.742Z,98614.69
2018-11-23T21:02:04.585Z,98600.43
2018-11-23T21:04:34.607Z,98589.97
2018-11-23T21:07:04.974Z,98594.25
2018-11-23T21:09:36.938Z,98581.64
2018-11-23T21:12:18.815Z,98571.66
2018-11-23T21:14:53.841Z,98571.86
2018-11-23T21:17:24.108Z,98561.00
2018-11-23T21:19:57.013Z,98566.06
2018-11-23T21:22:28.351Z,98553.56
2018-11-23T21:25:00.977Z,98559.37
2018-11-23T21:27:34.036Z,98563.03
2018-11-23T21:30:13.274Z,98561.44
2018-11-23T21:32:44.109Z,98547.30
2018-11-23T21:35:21.991Z,98557.98
2018-11-23T21:37:54.102Z,98551.28
2018-11-23T21:40:24.541Z,98547.44
2018-11-23T21:42:54.760Z,98554.41
2018-11-23T21:45:25.437Z,98552.70
2018-11-23T21:47:55.517Z,98545.73
2018-11-23T21:50:25.986Z,98550.22
2018-11-23T21:52:56.130Z,98550.06
2018-11-23T21:55:26.568Z,98536.53
2018-11-23T21:57:57.318Z,98542.61
2018-11-23T22:00:32.259Z,98549.81
2018-11-23T22:03:36.178Z,98534.44
2018-11-23T22:06:07.219Z,98524.80
2018-11-23T22:08:42.966Z,98515.81
2018-11-23T22:11:13.311Z,98508.19
2018-11-23T22:13:44.325Z,98497.80
2018-11-23T22:16:14.814Z,98492.48
2018-11-23T22:18:45.310Z,98488.80
2018-11-23T22:21:15.751Z,98487.19
2018-11-23T22:23:45.940Z,98481.41
2018-11-23T22:26:16.466Z,98481.98
2018-11-23T22:28:46.567Z,98480.70
2018-11-23T22:31:17.574Z,98473.82
2018-11-23T22:33:47.744Z,98466.08
2018-11-23T22:36:18.272Z,98476.58
2018-11-23T22:38:48.777Z,98471.48
2018-11-23T22:41:19.115Z,98478.48
2018-11-23T22:43:49.305Z,98480.86
2018-11-23T22:46:20.040Z,98477.63
2018-11-23T22:48:50.311Z,98476.81
2018-11-23T22:51:20.782Z,98475.80
2018-11-23T22:53:51.201Z,98479.88
2018-11-23T22:56:21.416Z,98470.78
2018-11-23T22:58:55.526Z,98473.06
2018-11-23T23:01:25.559Z,98470.69
2018-11-23T23:03:58.396Z,98464.23
2018-11-23T23:06:35.215Z,98465.80
2018-11-23T23:09:08.890Z,98471.79
2018-11-23T23:11:38.988Z,98461.64
2018-11-23T23:14:09.139Z,98459.26
2018-11-23T23:16:39.233Z,98450.58
2018-11-23T23:19:09.602Z,98453.24
2018-11-23T23:21:39.747Z,98469.14
2018-11-23T23:24:11.767Z,98457.05
2018-11-23T23:26:40.417Z,98447.78
2018-11-23T23:29:10.866Z,98453.75
2018-11-23T23:31:41.139Z,98454.48
2018-11-23T23:34:11.412Z,98449.34
2018-11-23T23:36:41.674Z,98448.95
2018-11-23T23:39:12.255Z,98424.27
2018-11-23T23:41:42.362Z,98438.53
2018-11-23T23:44:12.517Z,98442.08
2018-11-23T23:46:42.658Z,98425.45
2018-11-23T23:49:13.542Z,98444.64
2018-11-23T23:51:43.603Z,98441.28
2018-11-23T23:54:14.294Z,98429.00
2018-11-23T23:56:45.548Z,98435.92
2018-11-23T23:59:17.628Z,98450.44
